createdAt,value
2019-03-17T13:36:03.409Z,5.60
2019-03-17T13:37:03.394Z,4.00
2019-03-17T13:38:03.375Z,3.40
2019-03-17T13:39:03.357Z,4.50
2019-03-17T13:40:03.345Z,4.80
2019-03-17T13:41:03.321Z,4.60
2019-03-17T13:42:03.303Z,4.20
2019-03-17T13:43:03.284Z,3.30
2019-03-17T13:44:03.280Z,3.00
2019-03-17T13:45:03.249Z,4.00
2019-03-17T13:46:03.231Z,3.20
2019-03-17T13:47:03.209Z,4.40
2019-03-17T13:48:03.192Z,4.90
2019-03-17T13:49:03.177Z,5.00
2019-03-17T13:50:03.151Z,4.70
2019-03-17T13:51:03.136Z,4.90
2019-03-17T13:52:03.110Z,3.90
2019-03-17T13:53:03.092Z,6.30
2019-03-17T13:54:03.069Z,3.20
2019-03-17T13:55:03.048Z,5.50
2019-03-17T13:56:03.028Z,6.50
2019-03-17T13:57:03.010Z,6.60
2019-03-17T13:58:02.985Z,6.20
2019-03-17T13:59:02.966Z,9.10
2019-03-17T14:00:02.948Z,6.50
2019-03-17T14:01:02.924Z,6.20
2019-03-17T14:02:02.909Z,6.90
2019-03-17T14:03:02.883Z,7.30
2019-03-17T14:04:02.863Z,7.20
2019-03-17T14:05:02.842Z,5.90
2019-03-17T14:06:02.819Z,5.80
2019-03-17T14:07:02.796Z,6.30
2019-03-17T14:08:02.775Z,9.30
2019-03-17T14:09:02.751Z,7.50
2019-03-17T14:10:12.975Z,8.10
2019-03-17T14:11:02.708Z,9.00
2019-03-17T14:12:02.687Z,7.20
2019-03-17T14:13:02.665Z,5.60
2019-03-17T14:14:02.644Z,5.90
2019-03-17T14:15:02.625Z,7.10
2019-03-17T14:16:02.605Z,6.10
2019-03-17T14:17:02.579Z,7.00
2019-03-17T14:18:02.558Z,7.50
2019-03-17T14:19:02.536Z,7.90
2019-03-17T14:20:02.514Z,7.80
2019-03-17T14:21:02.502Z,9.40
2019-03-17T14:22:02.468Z,6.60
2019-03-17T14:23:02.449Z,7.20
2019-03-17T14:24:02.426Z,10.20
2019-03-17T14:25:02.403Z,5.30
2019-03-17T14:26:02.383Z,7.70
2019-03-17T14:27:02.360Z,8.50
2019-03-17T14:28:02.344Z,7.90
2019-03-17T14:29:02.314Z,8.50
2019-03-17T14:30:02.294Z,10.30
2019-03-17T14:31:02.279Z,7.80
2019-03-17T14:32:02.250Z,6.10
2019-03-17T14:33:02.228Z,8.00
2019-03-17T14:34:02.223Z,6.50
2019-03-17T14:35:02.185Z,6.30
2019-03-17T14:36:02.163Z,7.10
2019-03-17T14:37:02.139Z,8.90
2019-03-17T14:38:02.133Z,8.70
2019-03-17T14:39:02.099Z,9.00
2019-03-17T14:40:02.074Z,4.60
2019-03-17T14:41:02.051Z,5.20
2019-03-17T14:42:02.029Z,5.90
2019-03-17T14:43:02.007Z,5.70
2019-03-17T14:44:01.987Z,10.70
2019-03-17T14:45:01.962Z,9.90
2019-03-17T14:46:01.941Z,6.70
2019-03-17T14:47:01.919Z,6.40
2019-03-17T14:48:01.896Z,5.60
2019-03-17T14:49:01.873Z,8.40
2019-03-17T14:50:01.851Z,5.90
2019-03-17T14:51:01.829Z,6.40
2019-03-17T14:52:01.806Z,7.10
2019-03-17T14:53:01.783Z,5.50
2019-03-17T14:54:01.760Z,7.60
2019-03-17T14:55:01.741Z,5.80
2019-03-17T14:56:01.722Z,5.10
2019-03-17T14:57:01.696Z,5.80
2019-03-17T14:58:01.669Z,6.70
2019-03-17T14:59:01.650Z,4.20
2019-03-17T15:00:01.626Z,5.10
2019-03-17T15:01:01.603Z,4.10
2019-03-17T15:02:01.579Z,4.90
2019-03-17T15:03:01.556Z,4.00
2019-03-17T15:04:01.534Z,2.60
2019-03-17T15:05:01.510Z,2.20
2019-03-17T15:06:01.489Z,2.40
2019-03-17T15:07:01.464Z,1.60
2019-03-17T15:08:01.441Z,1.90
2019-03-17T15:09:01.417Z,2.50
2019-03-17T15:10:01.393Z,1.40
2019-03-17T15:11:06.153Z,1.70
2019-03-17T15:12:01.346Z,3.30
2019-03-17T15:13:01.320Z,2.00
2019-03-17T15:14:01.298Z,2.20
2019-03-17T15:15:01.273Z,2.10
2019-03-17T15:16:03.135Z,1.70
2019-03-17T15:17:01.225Z,1.80
2019-03-17T15:18:01.204Z,1.20
2019-03-17T15:19:01.175Z,1.60
2019-03-17T15:20:01.150Z,1.50
2019-03-17T15:21:01.127Z,1.20
2019-03-17T15:22:01.101Z,2.40
2019-03-17T15:23:01.076Z,1.20
2019-03-17T15:24:01.049Z,2.30
2019-03-17T15:25:01.033Z,1.40
2019-03-17T15:26:00.999Z,2.40
2019-03-17T15:27:00.981Z,2.00
2019-03-17T15:28:00.949Z,1.10
2019-03-17T15:29:00.924Z,1.10
2019-03-17T15:30:00.916Z,1.40
2019-03-17T15:31:11.608Z,1.50
2019-03-17T15:32:00.848Z,1.30
2019-03-17T15:33:00.821Z,1.20
2019-03-17T15:34:00.796Z,1.30
2019-03-17T15:35:00.773Z,1.10
2019-03-17T15:36:00.745Z,1.30
2019-03-17T15:37:00.718Z,1.20
2019-03-17T15:38:00.695Z,1.10
2019-03-17T15:39:00.667Z,1.20
2019-03-17T15:40:00.642Z,1.00
2019-03-17T15:41:00.614Z,1.40
2019-03-17T15:42:00.589Z,1.20
2019-03-17T15:43:00.564Z,1.10
2019-03-17T15:44:01.290Z,1.30
2019-03-17T15:45:00.511Z,1.60
2019-03-17T15:46:00.485Z,1.60
2019-03-17T15:47:00.461Z,1.20
2019-03-17T15:48:00.432Z,1.40
2019-03-17T15:49:00.405Z,1.90
2019-03-17T15:50:00.380Z,1.40
2019-03-17T15:51:00.352Z,2.00
2019-03-17T15:52:00.326Z,1.90
2019-03-17T15:53:00.309Z,2.10
2019-03-17T15:54:00.270Z,1.00
2019-03-17T15:55:00.374Z,1.10
2019-03-17T15:56:00.219Z,1.20
2019-03-17T15:57:00.191Z,2.10
2019-03-17T15:58:00.164Z,1.10
2019-03-17T15:59:00.137Z,1.80
2019-03-17T16:00:00.114Z,1.20
2019-03-17T16:01:00.088Z,1.10
2019-03-17T16:02:00.057Z,2.10
2019-03-17T16:03:00.032Z,1.20
2019-03-17T16:04:00.004Z,1.40
2019-03-17T16:04:59.974Z,1.10
2019-03-17T16:05:59.950Z,2.20
2019-03-17T16:06:59.922Z,1.60
2019-03-17T16:07:59.894Z,1.40
2019-03-17T16:08:59.866Z,1.60
2019-03-17T16:09:59.838Z,1.00
2019-03-17T16:10:59.811Z,1.40
2019-03-17T16:11:59.783Z,1.30
2019-03-17T16:12:59.756Z,1.30
2019-03-17T16:13:59.732Z,1.40
2019-03-17T16:14:59.704Z,1.60
2019-03-17T16:15:59.674Z,1.20
2019-03-17T16:16:59.645Z,1.10
2019-03-17T16:17:59.621Z,1.70
2019-03-17T16:18:59.594Z,1.10
2019-03-17T16:19:59.565Z,1.20
2019-03-17T16:20:59.537Z,1.60
2019-03-17T16:21:59.509Z,1.40
2019-03-17T16:22:59.481Z,1.10
2019-03-17T16:23:59.454Z,2.70
2019-03-17T16:24:59.424Z,1.70
2019-03-17T16:25:59.398Z,1.90
2019-03-17T16:26:59.369Z,1.80
2019-03-17T16:27:59.341Z,1.40
2019-03-17T16:28:59.312Z,1.30
2019-03-17T16:29:59.285Z,1.70
2019-03-17T16:30:59.258Z,1.50
2019-03-17T16:31:59.230Z,1.70
2019-03-17T16:32:59.207Z,2.30
2019-03-17T16:33:59.244Z,1.30
2019-03-17T16:34:59.146Z,1.10
2019-03-17T16:35:59.118Z,1.10
2019-03-17T16:37:02.091Z,2.00
2019-03-17T16:37:59.062Z,3.30
2019-03-17T16:38:59.034Z,1.40
2019-03-17T16:39:59.005Z,1.10
2019-03-17T16:40:58.976Z,1.20
2019-03-17T16:41:58.947Z,1.20
2019-03-17T16:43:00.436Z,1.40
2019-03-17T16:43:58.892Z,2.80
2019-03-17T16:44:58.862Z,1.10
2019-03-17T16:45:58.834Z,1.40
2019-03-17T16:46:58.806Z,3.10
2019-03-17T16:47:58.778Z,1.60
2019-03-17T16:48:58.750Z,1.90
2019-03-17T16:49:59.109Z,1.50
2019-03-17T16:50:58.695Z,2.00
2019-03-17T16:51:58.664Z,1.70
2019-03-17T16:52:58.635Z,2.20
2019-03-17T16:53:58.611Z,1.90
2019-03-17T16:54:58.577Z,2.50
2019-03-17T16:55:58.550Z,1.80
2019-03-17T16:56:58.521Z,2.30
2019-03-17T16:57:58.492Z,2.70
2019-03-17T16:58:58.464Z,2.60
2019-03-17T16:59:58.435Z,1.30
2019-03-17T17:00:58.406Z,1.60
2019-03-17T17:01:58.378Z,3.80
2019-03-17T17:02:58.352Z,1.30
2019-03-17T17:03:58.320Z,1.50
2019-03-17T17:04:58.292Z,1.50
2019-03-17T17:05:58.263Z,1.80
2019-03-17T17:06:58.237Z,3.10
2019-03-17T17:07:58.212Z,1.80
2019-03-17T17:08:58.182Z,2.20
2019-03-17T17:09:58.146Z,4.80
2019-03-17T17:11:00.496Z,3.60
2019-03-17T17:11:58.091Z,4.60
2019-03-17T17:12:58.062Z,2.00
2019-03-17T17:13:58.047Z,4.70
2019-03-17T17:14:58.005Z,1.80
2019-03-17T17:15:57.977Z,2.70
2019-03-17T17:16:57.957Z,1.90
2019-03-17T17:17:58.198Z,1.90
2019-03-17T17:18:57.890Z,1.70
2019-03-17T17:19:57.862Z,1.30
2019-03-17T17:20:57.834Z,2.50
2019-03-17T17:21:58.876Z,1.70
2019-03-17T17:22:57.775Z,2.00
2019-03-17T17:23:57.749Z,1.50
2019-03-17T17:24:57.718Z,2.20
2019-03-17T17:25:57.690Z,2.10
2019-03-17T17:26:57.663Z,1.70
2019-03-17T17:27:57.632Z,2.00
2019-03-17T17:28:57.606Z,2.70
2019-03-17T17:29:57.575Z,1.80
2019-03-17T17:30:57.546Z,1.60
2019-03-17T17:31:57.522Z,1.60
2019-03-17T17:32:57.488Z,1.80
2019-03-17T17:33:57.460Z,1.50
2019-03-17T17:34:57.432Z,1.50
2019-03-17T17:35:57.403Z,1.90
2019-03-17T17:36:57.374Z,2.60
2019-03-17T17:37:57.345Z,2.10
2019-03-17T17:38:57.318Z,1.40
2019-03-17T17:39:57.289Z,2.00
2019-03-17T17:40:57.260Z,2.40
2019-03-17T17:42:08.288Z,2.30
2019-03-17T17:42:57.202Z,2.10
2019-03-17T17:43:57.175Z,2.10
2019-03-17T17:44:57.147Z,1.80
2019-03-17T17:45:57.118Z,3.10
2019-03-17T17:46:58.261Z,1.50
2019-03-17T17:47:57.063Z,2.90
2019-03-17T17:48:57.032Z,1.50
2019-03-17T17:49:57.005Z,2.30
2019-03-17T17:50:56.976Z,2.80
2019-03-17T17:51:56.948Z,1.70
2019-03-17T17:52:56.920Z,2.10
2019-03-17T17:53:56.891Z,1.30
2019-03-17T17:54:56.863Z,1.80
2019-03-17T17:55:56.833Z,2.90
2019-03-17T17:56:56.806Z,1.80
2019-03-17T17:57:56.777Z,1.60
2019-03-17T17:58:56.750Z,2.30
2019-03-17T17:59:56.721Z,1.40
2019-03-17T18:00:56.692Z,1.90
2019-03-17T18:01:56.662Z,2.00
2019-03-17T18:02:58.842Z,2.20
2019-03-17T18:03:56.606Z,2.00
2019-03-17T18:04:56.578Z,1.30
2019-03-17T18:05:56.552Z,2.20
2019-03-17T18:06:56.521Z,3.10
2019-03-17T18:07:56.493Z,3.00
2019-03-17T18:08:56.464Z,3.50
2019-03-17T18:09:56.437Z,2.10
2019-03-17T18:10:56.408Z,4.50
2019-03-17T18:11:56.379Z,3.00
2019-03-17T18:12:56.350Z,4.30
2019-03-17T18:13:56.322Z,3.80
2019-03-17T18:14:57.795Z,1.90
2019-03-17T18:15:56.264Z,3.00
2019-03-17T18:16:56.237Z,3.10
2019-03-17T18:17:56.209Z,2.90
2019-03-17T18:18:56.181Z,3.10
2019-03-17T18:19:56.153Z,2.30
2019-03-17T18:20:56.123Z,2.50
2019-03-17T18:21:56.095Z,2.30
2019-03-17T18:22:56.066Z,3.80
2019-03-17T18:23:56.037Z,2.00
2019-03-17T18:24:56.011Z,2.30
2019-03-17T18:25:55.980Z,3.00
2019-03-17T18:26:55.952Z,2.00
2019-03-17T18:27:55.926Z,2.40
2019-03-17T18:28:55.903Z,2.10
2019-03-17T18:29:55.867Z,2.40
2019-03-17T18:30:55.839Z,2.60
2019-03-17T18:31:55.810Z,3.20
2019-03-17T18:32:55.781Z,2.40
2019-03-17T18:33:55.752Z,2.80
2019-03-17T18:34:55.729Z,3.40
2019-03-17T18:35:55.724Z,2.80
2019-03-17T18:36:55.667Z,1.80
2019-03-17T18:37:55.695Z,2.40
2019-03-17T18:38:55.637Z,2.90
2019-03-17T18:39:55.584Z,3.20
2019-03-17T18:40:55.553Z,3.60
2019-03-17T18:41:55.524Z,2.90
2019-03-17T18:42:55.496Z,1.80
2019-03-17T18:43:55.470Z,2.20
2019-03-17T18:44:55.438Z,2.60
2019-03-17T18:45:55.410Z,2.00
2019-03-17T18:46:55.382Z,1.80
2019-03-17T18:47:57.570Z,3.00
2019-03-17T18:48:55.324Z,2.40
2019-03-17T18:49:55.296Z,3.90
2019-03-17T18:50:55.268Z,4.10
2019-03-17T18:51:55.239Z,2.90
2019-03-17T18:52:55.212Z,2.80
2019-03-17T18:53:55.182Z,2.30
2019-03-17T18:54:55.244Z,2.00
2019-03-17T18:55:55.125Z,1.70
2019-03-17T18:56:55.096Z,3.00
2019-03-17T18:57:55.068Z,4.20
2019-03-17T18:58:55.039Z,1.60
2019-03-17T18:59:55.012Z,1.70
2019-03-17T19:00:54.983Z,2.40
2019-03-17T19:01:54.953Z,2.40
2019-03-17T19:02:54.927Z,3.10
2019-03-17T19:03:54.901Z,1.50
2019-03-17T19:04:55.625Z,1.60
2019-03-17T19:05:54.843Z,1.40
2019-03-17T19:06:54.815Z,2.90
2019-03-17T19:07:54.785Z,3.60
2019-03-17T19:08:54.756Z,2.30
2019-03-17T19:09:54.728Z,1.50
2019-03-17T19:10:55.109Z,1.90
2019-03-17T19:11:54.672Z,2.30
2019-03-17T19:12:54.642Z,1.40
2019-03-17T19:13:54.613Z,2.00
2019-03-17T19:14:54.585Z,2.90
2019-03-17T19:15:54.557Z,1.80
2019-03-17T19:16:54.530Z,2.20
2019-03-17T19:17:54.500Z,1.90
2019-03-17T19:18:54.473Z,3.40
2019-03-17T19:19:54.445Z,3.60
2019-03-17T19:20:54.417Z,2.50
2019-03-17T19:21:54.388Z,2.20
2019-03-17T19:22:54.363Z,3.30
2019-03-17T19:23:54.332Z,2.10
2019-03-17T19:24:54.303Z,1.80
2019-03-17T19:25:56.626Z,1.60
2019-03-17T19:26:54.247Z,1.30
2019-03-17T19:27:54.219Z,2.90
2019-03-17T19:28:54.189Z,1.60
2019-03-17T19:29:54.161Z,1.20
2019-03-17T19:30:54.133Z,1.50
2019-03-17T19:31:54.856Z,1.30
2019-03-17T19:32:54.081Z,1.70
2019-03-17T19:33:54.050Z,1.10
2019-03-17T19:34:54.020Z,2.20
2019-03-17T19:35:55.246Z,1.20
2019-03-17T19:36:53.963Z,1.30
2019-03-17T19:37:53.935Z,1.40
2019-03-17T19:38:53.906Z,1.30
2019-03-17T19:39:53.878Z,1.50
2019-03-17T19:40:53.850Z,1.10
2019-03-17T19:41:53.822Z,1.30
2019-03-17T19:42:59.307Z,1.80
2019-03-17T19:43:53.765Z,1.20
2019-03-17T19:44:53.738Z,1.70
2019-03-17T19:45:53.708Z,1.80
2019-03-17T19:46:53.680Z,1.20
2019-03-17T19:47:53.653Z,3.10
2019-03-17T19:48:53.623Z,1.70
2019-03-17T19:49:53.595Z,1.30
2019-03-17T19:50:53.567Z,2.10
2019-03-17T19:51:53.539Z,1.30
2019-03-17T19:52:55.012Z,1.40
2019-03-17T19:53:53.481Z,1.40
2019-03-17T19:54:53.458Z,1.40
2019-03-17T19:55:53.426Z,2.20
2019-03-17T19:56:53.397Z,1.30
2019-03-17T19:57:53.378Z,1.90
2019-03-17T19:58:55.594Z,1.90
2019-03-17T19:59:53.313Z,2.10
2019-03-17T20:00:53.282Z,2.40
2019-03-17T20:01:53.256Z,1.70
2019-03-17T20:02:53.228Z,2.50
2019-03-17T20:03:53.200Z,2.40
2019-03-17T20:04:53.920Z,2.60
2019-03-17T20:06:01.815Z,2.20
2019-03-17T20:06:53.113Z,1.40
2019-03-17T20:07:53.086Z,1.50
2019-03-17T20:08:53.056Z,3.70
2019-03-17T20:09:53.027Z,1.40
2019-03-17T20:10:53.004Z,1.70
2019-03-17T20:11:52.972Z,2.40
2019-03-17T20:12:52.943Z,1.50
2019-03-17T20:13:52.915Z,2.10
2019-03-17T20:14:52.930Z,1.40
2019-03-17T20:15:52.858Z,1.40
2019-03-17T20:16:52.832Z,1.40
2019-03-17T20:17:52.801Z,1.10
2019-03-17T20:18:52.777Z,2.20
2019-03-17T20:19:52.746Z,1.50
2019-03-17T20:20:52.716Z,1.50
2019-03-17T20:21:52.688Z,1.50
2019-03-17T20:22:52.668Z,2.10
2019-03-17T20:23:52.635Z,1.50
2019-03-17T20:24:52.602Z,1.60
2019-03-17T20:25:52.574Z,2.30
2019-03-17T20:26:52.546Z,1.40
2019-03-17T20:27:52.518Z,1.60
2019-03-17T20:28:52.489Z,0.90
2019-03-17T20:29:52.460Z,1.50
2019-03-17T20:30:52.434Z,1.30
2019-03-17T20:31:52.405Z,1.50
2019-03-17T20:32:52.378Z,1.70
2019-03-17T20:33:52.347Z,1.60
2019-03-17T20:34:52.319Z,1.40
2019-03-17T20:35:52.291Z,2.60
2019-03-17T20:36:52.263Z,2.40
2019-03-17T20:37:52.235Z,1.80
2019-03-17T20:38:52.206Z,3.20
2019-03-17T20:39:54.070Z,1.60
2019-03-17T20:40:52.210Z,2.50
2019-03-17T20:41:53.622Z,1.60
2019-03-17T20:42:52.093Z,1.60
2019-03-17T20:43:52.065Z,3.10
2019-03-17T20:44:52.035Z,1.40
2019-03-17T20:45:52.009Z,1.80
2019-03-17T20:46:51.991Z,2.20
2019-03-17T20:47:51.952Z,1.90
2019-03-17T20:48:51.923Z,1.90
2019-03-17T20:49:51.896Z,2.00
2019-03-17T20:50:51.867Z,1.90
2019-03-17T20:51:51.840Z,1.40
2019-03-17T20:52:51.810Z,1.90
2019-03-17T20:53:51.781Z,1.50
2019-03-17T20:54:51.754Z,1.90
2019-03-17T20:55:51.726Z,2.10
2019-03-17T20:56:51.697Z,2.00
2019-03-17T20:57:51.669Z,1.20
2019-03-17T20:58:51.641Z,2.50
2019-03-17T20:59:51.620Z,2.40
2019-03-17T21:00:51.584Z,2.70
2019-03-17T21:01:51.559Z,2.10
2019-03-17T21:02:51.528Z,2.20
2019-03-17T21:03:51.552Z,2.20
2019-03-17T21:04:51.471Z,1.30
2019-03-17T21:05:51.443Z,1.10
2019-03-17T21:06:51.415Z,2.10
2019-03-17T21:07:51.387Z,1.50
2019-03-17T21:08:51.359Z,1.40
2019-03-17T21:09:51.346Z,1.60
2019-03-17T21:10:51.303Z,1.80
2019-03-17T21:11:51.274Z,1.70
2019-03-17T21:12:51.248Z,2.40
2019-03-17T21:13:51.216Z,2.60
2019-03-17T21:14:51.239Z,1.10
2019-03-17T21:15:51.162Z,1.00
2019-03-17T21:16:51.132Z,1.50
2019-03-17T21:17:51.104Z,1.40
2019-03-17T21:18:51.128Z,2.40
2019-03-17T21:19:51.047Z,1.50
2019-03-17T21:20:51.018Z,1.00
2019-03-17T21:21:50.990Z,2.10
2019-03-17T21:22:50.967Z,2.00
2019-03-17T21:23:50.940Z,1.70
2019-03-17T21:24:50.906Z,2.30
2019-03-17T21:25:50.910Z,2.20
2019-03-17T21:26:50.849Z,1.60
2019-03-17T21:27:50.820Z,1.30
2019-03-17T21:28:50.792Z,1.70
2019-03-17T21:29:50.762Z,1.80
2019-03-17T21:30:50.750Z,1.10
2019-03-17T21:31:50.706Z,1.90
2019-03-17T21:32:50.676Z,1.40
2019-03-17T21:33:50.649Z,1.90
2019-03-17T21:34:50.636Z,1.80
2019-03-17T21:35:50.592Z,1.30
2019-03-17T21:36:50.563Z,1.20
2019-03-17T21:37:50.543Z,2.50
2019-03-17T21:38:50.507Z,1.80
2019-03-17T21:39:50.478Z,1.10
2019-03-17T21:41:05.912Z,1.50
2019-03-17T21:41:50.421Z,2.20
2019-03-17T21:42:50.395Z,1.90
2019-03-17T21:43:59.293Z,1.10
2019-03-17T21:44:50.336Z,1.50
2019-03-17T21:45:50.309Z,1.40
2019-03-17T21:46:50.280Z,0.90
2019-03-17T21:47:50.252Z,2.40
2019-03-17T21:48:50.223Z,2.10
2019-03-17T21:49:50.194Z,2.00
2019-03-17T21:50:50.168Z,2.80
2019-03-17T21:51:50.138Z,2.70
2019-03-17T21:52:50.859Z,1.40
2019-03-17T21:53:50.080Z,2.00
2019-03-17T21:54:50.053Z,2.00
2019-03-17T21:55:50.023Z,1.70
2019-03-17T21:56:49.999Z,1.40
2019-03-17T21:57:49.966Z,1.40
2019-03-17T21:58:49.938Z,1.30
2019-03-17T21:59:49.910Z,1.70
2019-03-17T22:00:49.883Z,1.60
2019-03-17T22:01:49.852Z,1.50
2019-03-17T22:02:49.824Z,1.50
2019-03-17T22:03:49.804Z,1.70
2019-03-17T22:04:49.767Z,1.00
2019-03-17T22:05:49.738Z,1.30
2019-03-17T22:06:49.781Z,2.60
2019-03-17T22:07:51.020Z,1.60
2019-03-17T22:08:49.690Z,1.50
2019-03-17T22:09:49.627Z,1.90
2019-03-17T22:10:49.596Z,1.70
2019-03-17T22:11:49.569Z,2.40
2019-03-17T22:12:49.538Z,2.10
2019-03-17T22:13:49.511Z,1.60
2019-03-17T22:14:49.538Z,1.20
2019-03-17T22:15:49.454Z,2.40
2019-03-17T22:16:49.425Z,1.10
2019-03-17T22:17:49.395Z,2.30
2019-03-17T22:18:49.368Z,3.50
2019-03-17T22:19:49.341Z,1.50
2019-03-17T22:20:49.311Z,2.50
2019-03-17T22:21:49.284Z,1.50
2019-03-17T22:22:49.255Z,5.40
2019-03-17T22:23:49.227Z,1.70
2019-03-17T22:24:49.198Z,2.00
2019-03-17T22:25:49.920Z,2.10
2019-03-17T22:26:49.142Z,1.70
2019-03-17T22:27:49.132Z,1.20
2019-03-17T22:28:49.085Z,1.90
2019-03-17T22:29:49.061Z,1.70
2019-03-17T22:30:49.032Z,1.50
2019-03-17T22:31:49.031Z,1.40
2019-03-17T22:32:48.971Z,1.60
2019-03-17T22:33:48.945Z,1.80
2019-03-17T22:34:48.918Z,1.50
2019-03-17T22:35:48.887Z,1.40
2019-03-17T22:36:48.859Z,1.30
2019-03-17T22:37:48.830Z,2.20
2019-03-17T22:38:48.802Z,2.60
2019-03-17T22:39:48.774Z,1.50
2019-03-17T22:40:48.745Z,1.30
2019-03-17T22:41:48.718Z,1.50
2019-03-17T22:42:48.690Z,1.80
2019-03-17T22:43:48.662Z,1.80
2019-03-17T22:44:48.633Z,1.80
2019-03-17T22:45:48.605Z,2.80
2019-03-17T22:46:48.577Z,2.30
2019-03-17T22:47:48.549Z,1.80
2019-03-17T22:48:48.519Z,3.10
2019-03-17T22:49:48.492Z,1.30
2019-03-17T22:50:48.464Z,2.10
2019-03-17T22:51:48.435Z,2.40
2019-03-17T22:52:48.409Z,2.00
2019-03-17T22:53:48.380Z,2.40
2019-03-17T22:54:48.352Z,2.00
2019-03-17T22:55:48.323Z,1.30
2019-03-17T22:56:48.296Z,1.90
2019-03-17T22:57:48.267Z,1.10
2019-03-17T22:58:48.241Z,2.50
2019-03-17T22:59:48.212Z,2.10
2019-03-17T23:00:48.183Z,1.80
2019-03-17T23:01:48.155Z,1.60
2019-03-17T23:02:48.137Z,2.20
2019-03-17T23:03:48.099Z,2.20
2019-03-17T23:04:48.071Z,2.30
2019-03-17T23:05:48.044Z,1.70
2019-03-17T23:06:48.023Z,1.90
2019-03-17T23:07:47.988Z,2.80
2019-03-17T23:08:47.958Z,2.90
2019-03-17T23:09:47.931Z,1.20
2019-03-17T23:10:47.903Z,1.30
2019-03-17T23:11:47.875Z,1.50
2019-03-17T23:12:47.849Z,1.40
2019-03-17T23:13:47.818Z,1.40
2019-03-17T23:14:48.540Z,1.60
2019-03-17T23:15:47.763Z,2.10
2019-03-17T23:16:47.734Z,1.70
2019-03-17T23:17:47.707Z,2.10
2019-03-17T23:18:47.678Z,1.10
2019-03-17T23:19:47.654Z,2.80
2019-03-17T23:20:47.638Z,2.80
2019-03-17T23:21:47.594Z,2.60
2019-03-17T23:22:47.565Z,2.20
2019-03-17T23:23:47.612Z,1.60
2019-03-17T23:24:47.507Z,2.40
2019-03-17T23:25:47.481Z,1.70
2019-03-17T23:26:47.452Z,1.60
2019-03-17T23:27:47.425Z,1.40
2019-03-17T23:28:47.395Z,1.40
2019-03-17T23:29:47.367Z,2.00
2019-03-17T23:30:48.089Z,1.80
2019-03-17T23:31:47.310Z,2.30
2019-03-17T23:32:49.297Z,1.40
2019-03-17T23:33:47.253Z,1.60
2019-03-17T23:34:47.225Z,2.00
2019-03-17T23:35:47.198Z,1.00
2019-03-17T23:36:47.167Z,1.50
2019-03-17T23:37:47.189Z,2.10
2019-03-17T23:38:47.112Z,1.20
2019-03-17T23:39:47.083Z,1.10
2019-03-17T23:40:47.055Z,2.40
2019-03-17T23:41:47.027Z,1.40
2019-03-17T23:42:47.001Z,2.00
2019-03-17T23:43:46.970Z,1.80
2019-03-17T23:44:49.328Z,1.80
2019-03-17T23:45:46.913Z,1.30
2019-03-17T23:46:46.887Z,1.40
2019-03-17T23:47:46.857Z,1.70
2019-03-17T23:48:46.827Z,1.60
2019-03-17T23:49:46.799Z,1.40
2019-03-17T23:50:46.771Z,1.70
2019-03-17T23:51:46.742Z,2.60
2019-03-17T23:52:46.716Z,2.00
2019-03-17T23:53:46.686Z,1.50
2019-03-17T23:54:46.657Z,1.70
2019-03-17T23:55:46.639Z,1.70
2019-03-17T23:56:46.601Z,1.50
2019-03-17T23:57:46.572Z,2.60
2019-03-17T23:58:46.544Z,1.50
2019-03-17T23:59:46.524Z,2.70
